sensor_id;sensor_type;location;lat;lon;timestamp;P1;durP1;ratioP1;P2;durP2;ratioP2
4450;SDS011;2238;50.180;9.230;2023-02-24T00:01:52;43.70;;;23.67;;
4450;SDS011;2238;50.180;9.230;2023-02-24T00:04:59;42.83;;;23.53;;
4450;SDS011;2238;50.180;9.230;2023-02-24T00:08:00;37.07;;;22.27;;
4450;SDS011;2238;50.180;9.230;2023-02-24T00:11:05;41.70;;;22.37;;
4450;SDS011;2238;50.180;9.230;2023-02-24T00:14:16;43.40;;;21.90;;
4450;SDS011;2238;50.180;9.230;2023-02-24T00:17:17;36.30;;;21.97;;
4450;SDS011;2238;50.180;9.230;2023-02-24T00:20:18;41.75;;;24.58;;
4450;SDS011;2238;50.180;9.230;2023-02-24T00:23:19;42.77;;;24.77;;
4450;SDS011;2238;50.180;9.230;2023-02-24T00:26:20;41.57;;;26.17;;
4450;SDS011;2238;50.180;9.230;2023-02-24T00:29:21;35.63;;;20.47;;
4450;SDS011;2238;50.180;9.230;2023-02-24T00:32:23;37.73;;;22.60;;
4450;SDS011;2238;50.180;9.230;2023-02-24T00:35:23;44.60;;;24.90;;
4450;SDS011;2238;50.180;9.230;2023-02-24T00:38:24;42.33;;;23.97;;
4450;SDS011;2238;50.180;9.230;2023-02-24T00:41:28;38.13;;;22.17;;
4450;SDS011;2238;50.180;9.230;2023-02-24T00:44:31;42.40;;;21.90;;
4450;SDS011;2238;50.180;9.230;2023-02-24T00:47:35;45.80;;;22.37;;
4450;SDS011;2238;50.180;9.230;2023-02-24T00:50:38;47.93;;;24.07;;
4450;SDS011;2238;50.180;9.230;2023-02-24T00:53:39;49.53;;;24.60;;
4450;SDS011;2238;50.180;9.230;2023-02-24T00:56:40;51.43;;;25.30;;
4450;SDS011;2238;50.180;9.230;2023-02-24T00:59:42;45.23;;;23.40;;
4450;SDS011;2238;50.180;9.230;2023-02-24T01:02:46;45.43;;;23.53;;
4450;SDS011;2238;50.180;9.230;2023-02-24T01:05:46;47.20;;;24.73;;
4450;SDS011;2238;50.180;9.230;2023-02-24T01:08:48;47.03;;;24.93;;
4450;SDS011;2238;50.180;9.230;2023-02-24T01:11:50;45.30;;;23.50;;
4450;SDS011;2238;50.180;9.230;2023-02-24T01:15:09;48.93;;;22.57;;
4450;SDS011;2238;50.180;9.230;2023-02-24T01:18:10;52.77;;;26.03;;
4450;SDS011;2238;50.180;9.230;2023-02-24T01:21:11;45.70;;;22.60;;
4450;SDS011;2238;50.180;9.230;2023-02-24T01:24:12;52.73;;;26.03;;
4450;SDS011;2238;50.180;9.230;2023-02-24T01:27:15;46.40;;;24.53;;
4450;SDS011;2238;50.180;9.230;2023-02-24T01:30:19;41.27;;;22.10;;
4450;SDS011;2238;50.180;9.230;2023-02-24T01:33:20;52.07;;;22.80;;
4450;SDS011;2238;50.180;9.230;2023-02-24T01:36:22;48.40;;;24.57;;
4450;SDS011;2238;50.180;9.230;2023-02-24T01:39:24;48.43;;;22.43;;
4450;SDS011;2238;50.180;9.230;2023-02-24T01:42:25;45.53;;;21.53;;
4450;SDS011;2238;50.180;9.230;2023-02-24T01:45:27;46.27;;;22.63;;
4450;SDS011;2238;50.180;9.230;2023-02-24T01:48:28;42.80;;;22.90;;
4450;SDS011;2238;50.180;9.230;2023-02-24T01:51:30;47.57;;;22.77;;
4450;SDS011;2238;50.180;9.230;2023-02-24T01:54:44;47.10;;;25.30;;
4450;SDS011;2238;50.180;9.230;2023-02-24T01:57:49;49.27;;;23.53;;
4450;SDS011;2238;50.180;9.230;2023-02-24T02:00:54;57.40;;;22.20;;
4450;SDS011;2238;50.180;9.230;2023-02-24T02:03:58;54.50;;;23.70;;
4450;SDS011;2238;50.180;9.230;2023-02-24T02:07:05;48.70;;;22.90;;
4450;SDS011;2238;50.180;9.230;2023-02-24T02:10:09;46.00;;;22.13;;
4450;SDS011;2238;50.180;9.230;2023-02-24T02:13:11;45.60;;;22.30;;
4450;SDS011;2238;50.180;9.230;2023-02-24T02:35:54;41.17;;;20.80;;
4450;SDS011;2238;50.180;9.230;2023-02-24T02:39:40;43.43;;;21.07;;
4450;SDS011;2238;50.180;9.230;2023-02-24T02:43:02;44.20;;;20.17;;
4450;SDS011;2238;50.180;9.230;2023-02-24T02:46:35;42.23;;;19.23;;
4450;SDS011;2238;50.180;9.230;2023-02-24T02:49:44;38.30;;;19.90;;
4450;SDS011;2238;50.180;9.230;2023-02-24T02:52:57;39.20;;;19.60;;
4450;SDS011;2238;50.180;9.230;2023-02-24T02:56:10;37.70;;;19.17;;
4450;SDS011;2238;50.180;9.230;2023-02-24T02:59:16;38.80;;;18.63;;
4450;SDS011;2238;50.180;9.230;2023-02-24T03:02:23;33.40;;;18.13;;
4450;SDS011;2238;50.180;9.230;2023-02-24T03:05:30;35.83;;;18.60;;
4450;SDS011;2238;50.180;9.230;2023-02-24T03:08:36;37.57;;;19.43;;
4450;SDS011;2238;50.180;9.230;2023-02-24T03:11:40;33.30;;;17.53;;
4450;SDS011;2238;50.180;9.230;2023-02-24T03:14:45;31.83;;;17.50;;
4450;SDS011;2238;50.180;9.230;2023-02-24T03:18:00;30.00;;;16.70;;
4450;SDS011;2238;50.180;9.230;2023-02-24T03:21:11;36.13;;;17.50;;
4450;SDS011;2238;50.180;9.230;2023-02-24T03:24:17;33.50;;;17.07;;
4450;SDS011;2238;50.180;9.230;2023-02-24T03:27:30;37.40;;;16.93;;
4450;SDS011;2238;50.180;9.230;2023-02-24T03:31:00;34.23;;;16.60;;
4450;SDS011;2238;50.180;9.230;2023-02-24T03:34:10;35.33;;;17.47;;
4450;SDS011;2238;50.180;9.230;2023-02-24T03:37:14;33.40;;;14.57;;
4450;SDS011;2238;50.180;9.230;2023-02-24T03:40:15;30.77;;;18.37;;
4450;SDS011;2238;50.180;9.230;2023-02-24T03:43:18;37.03;;;18.43;;
4450;SDS011;2238;50.180;9.230;2023-02-24T03:46:24;37.70;;;18.53;;
4450;SDS011;2238;50.180;9.230;2023-02-24T03:49:25;31.67;;;15.90;;
4450;SDS011;2238;50.180;9.230;2023-02-24T04:02:17;38.17;;;18.83;;
4450;SDS011;2238;50.180;9.230;2023-02-24T04:05:21;45.90;;;22.63;;
4450;SDS011;2238;50.180;9.230;2023-02-24T04:08:23;40.17;;;20.83;;
4450;SDS011;2238;50.180;9.230;2023-02-24T04:11:31;39.07;;;19.27;;
4450;SDS011;2238;50.180;9.230;2023-02-24T04:14:42;34.57;;;17.57;;
4450;SDS011;2238;50.180;9.230;2023-02-24T04:18:04;30.97;;;17.40;;
4450;SDS011;2238;50.180;9.230;2023-02-24T04:21:30;38.43;;;16.93;;
4450;SDS011;2238;50.180;9.230;2023-02-24T04:24:32;36.70;;;18.60;;
4450;SDS011;2238;50.180;9.230;2023-02-24T04:27:33;34.53;;;18.43;;
4450;SDS011;2238;50.180;9.230;2023-02-24T04:30:35;36.37;;;17.43;;
4450;SDS011;2238;50.180;9.230;2023-02-24T04:33:39;35.00;;;17.90;;
4450;SDS011;2238;50.180;9.230;2023-02-24T04:36:40;33.43;;;16.80;;
4450;SDS011;2238;50.180;9.230;2023-02-24T04:39:41;34.00;;;17.10;;
4450;SDS011;2238;50.180;9.230;2023-02-24T04:42:42;29.40;;;16.47;;
4450;SDS011;2238;50.180;9.230;2023-02-24T04:45:48;35.13;;;16.00;;
4450;SDS011;2238;50.180;9.230;2023-02-24T04:48:50;34.27;;;15.50;;
4450;SDS011;2238;50.180;9.230;2023-02-24T04:51:51;32.93;;;15.87;;
4450;SDS011;2238;50.180;9.230;2023-02-24T04:54:51;29.90;;;15.67;;
4450;SDS011;2238;50.180;9.230;2023-02-24T04:57:52;35.50;;;19.63;;
4450;SDS011;2238;50.180;9.230;2023-02-24T05:00:54;41.73;;;18.93;;
4450;SDS011;2238;50.180;9.230;2023-02-24T05:03:54;31.43;;;17.50;;
4450;SDS011;2238;50.180;9.230;2023-02-24T05:06:55;29.37;;;16.73;;
4450;SDS011;2238;50.180;9.230;2023-02-24T05:09:56;30.07;;;14.00;;
4450;SDS011;2238;50.180;9.230;2023-02-24T05:12:57;31.83;;;15.87;;
4450;SDS011;2238;50.180;9.230;2023-02-24T05:16:08;34.57;;;17.20;;
4450;SDS011;2238;50.180;9.230;2023-02-24T05:19:09;33.43;;;16.67;;
4450;SDS011;2238;50.180;9.230;2023-02-24T05:22:30;28.50;;;17.73;;
4450;SDS011;2238;50.180;9.230;2023-02-24T05:25:30;33.87;;;17.03;;
4450;SDS011;2238;50.180;9.230;2023-02-24T05:28:37;32.40;;;14.40;;
4450;SDS011;2238;50.180;9.230;2023-02-24T05:31:39;31.87;;;15.07;;
4450;SDS011;2238;50.180;9.230;2023-02-24T05:34:40;33.60;;;18.87;;
4450;SDS011;2238;50.180;9.230;2023-02-24T05:37:41;33.57;;;17.10;;
4450;SDS011;2238;50.180;9.230;2023-02-24T05:40:44;31.70;;;14.40;;
4450;SDS011;2238;50.180;9.230;2023-02-24T05:43:47;29.33;;;15.60;;
4450;SDS011;2238;50.180;9.230;2023-02-24T05:46:54;30.87;;;15.83;;
4450;SDS011;2238;50.180;9.230;2023-02-24T05:49:58;27.00;;;15.17;;
4450;SDS011;2238;50.180;9.230;2023-02-24T05:52:59;29.40;;;13.93;;
4450;SDS011;2238;50.180;9.230;2023-02-24T05:56:00;30.10;;;15.57;;
4450;SDS011;2238;50.180;9.230;2023-02-24T05:59:03;29.07;;;15.27;;
4450;SDS011;2238;50.180;9.230;2023-02-24T06:02:07;27.57;;;15.50;;
4450;SDS011;2238;50.180;9.230;2023-02-24T06:05:11;32.53;;;16.83;;
4450;SDS011;2238;50.180;9.230;2023-02-24T06:08:24;37.40;;;17.73;;
4450;SDS011;2238;50.180;9.230;2023-02-24T06:11:25;29.43;;;16.33;;
4450;SDS011;2238;50.180;9.230;2023-02-24T06:14:25;32.33;;;16.63;;
4450;SDS011;2238;50.180;9.230;2023-02-24T06:17:27;29.60;;;15.53;;
4450;SDS011;2238;50.180;9.230;2023-02-24T06:20:28;34.07;;;16.70;;
4450;SDS011;2238;50.180;9.230;2023-02-24T06:23:33;35.27;;;16.60;;
4450;SDS011;2238;50.180;9.230;2023-02-24T06:26:34;25.57;;;14.50;;
4450;SDS011;2238;50.180;9.230;2023-02-24T06:29:36;35.70;;;17.90;;
4450;SDS011;2238;50.180;9.230;2023-02-24T06:32:37;31.53;;;15.97;;
4450;SDS011;2238;50.180;9.230;2023-02-24T06:35:38;31.23;;;17.47;;
4450;SDS011;2238;50.180;9.230;2023-02-24T06:38:38;32.27;;;15.57;;
4450;SDS011;2238;50.180;9.230;2023-02-24T06:41:40;30.87;;;15.63;;
4450;SDS011;2238;50.180;9.230;2023-02-24T06:44:41;35.50;;;15.67;;
4450;SDS011;2238;50.180;9.230;2023-02-24T06:47:42;32.50;;;16.90;;
4450;SDS011;2238;50.180;9.230;2023-02-24T06:50:42;29.33;;;16.47;;
4450;SDS011;2238;50.180;9.230;2023-02-24T06:53:43;38.40;;;18.70;;
4450;SDS011;2238;50.180;9.230;2023-02-24T06:56:44;36.37;;;18.40;;
4450;SDS011;2238;50.180;9.230;2023-02-24T06:59:46;29.57;;;17.90;;
4450;SDS011;2238;50.180;9.230;2023-02-24T07:02:47;33.43;;;17.20;;
4450;SDS011;2238;50.180;9.230;2023-02-24T07:05:52;34.03;;;15.30;;
4450;SDS011;2238;50.180;9.230;2023-02-24T07:09:10;32.43;;;17.00;;
4450;SDS011;2238;50.180;9.230;2023-02-24T07:12:12;37.30;;;17.23;;
4450;SDS011;2238;50.180;9.230;2023-02-24T07:15:19;33.63;;;15.83;;
4450;SDS011;2238;50.180;9.230;2023-02-24T07:18:20;30.90;;;16.73;;
4450;SDS011;2238;50.180;9.230;2023-02-24T07:21:22;33.20;;;15.60;;
4450;SDS011;2238;50.180;9.230;2023-02-24T07:24:33;33.33;;;15.37;;
4450;SDS011;2238;50.180;9.230;2023-02-24T07:27:35;26.93;;;14.60;;
4450;SDS011;2238;50.180;9.230;2023-02-24T07:30:36;30.67;;;15.50;;
4450;SDS011;2238;50.180;9.230;2023-02-24T07:33:38;31.57;;;15.70;;
4450;SDS011;2238;50.180;9.230;2023-02-24T07:36:39;32.83;;;18.30;;
4450;SDS011;2238;50.180;9.230;2023-02-24T07:39:48;27.90;;;15.30;;
4450;SDS011;2238;50.180;9.230;2023-02-24T07:42:48;37.73;;;17.20;;
4450;SDS011;2238;50.180;9.230;2023-02-24T07:45:49;32.10;;;16.40;;
4450;SDS011;2238;50.180;9.230;2023-02-24T07:48:51;32.90;;;17.07;;
4450;SDS011;2238;50.180;9.230;2023-02-24T07:51:53;37.37;;;17.40;;
4450;SDS011;2238;50.180;9.230;2023-02-24T07:54:56;35.40;;;17.73;;
4450;SDS011;2238;50.180;9.230;2023-02-24T07:57:57;38.30;;;16.20;;
4450;SDS011;2238;50.180;9.230;2023-02-24T08:01:00;36.63;;;18.13;;
4450;SDS011;2238;50.180;9.230;2023-02-24T08:04:07;33.50;;;16.10;;
4450;SDS011;2238;50.180;9.230;2023-02-24T08:07:11;33.97;;;17.53;;
4450;SDS011;2238;50.180;9.230;2023-02-24T08:10:13;37.07;;;18.53;;
4450;SDS011;2238;50.180;9.230;2023-02-24T08:13:23;33.40;;;17.57;;
4450;SDS011;2238;50.180;9.230;2023-02-24T08:16:23;36.00;;;17.40;;
4450;SDS011;2238;50.180;9.230;2023-02-24T08:19:27;36.20;;;18.07;;
4450;SDS011;2238;50.180;9.230;2023-02-24T08:22:38;33.07;;;16.83;;
4450;SDS011;2238;50.180;9.230;2023-02-24T08:25:43;30.60;;;16.17;;
4450;SDS011;2238;50.180;9.230;2023-02-24T08:28:43;36.37;;;16.93;;
4450;SDS011;2238;50.180;9.230;2023-02-24T08:31:44;36.87;;;17.43;;
4450;SDS011;2238;50.180;9.230;2023-02-24T08:34:45;31.77;;;17.20;;
4450;SDS011;2238;50.180;9.230;2023-02-24T08:37:51;37.40;;;16.70;;
4450;SDS011;2238;50.180;9.230;2023-02-24T08:40:53;35.33;;;18.77;;
4450;SDS011;2238;50.180;9.230;2023-02-24T08:43:57;35.50;;;18.40;;
4450;SDS011;2238;50.180;9.230;2023-02-24T08:46:59;35.90;;;18.23;;
4450;SDS011;2238;50.180;9.230;2023-02-24T08:50:04;32.63;;;17.40;;
4450;SDS011;2238;50.180;9.230;2023-02-24T08:53:06;35.97;;;17.43;;
4450;SDS011;2238;50.180;9.230;2023-02-24T08:56:10;32.37;;;18.37;;
4450;SDS011;2238;50.180;9.230;2023-02-24T08:59:12;38.37;;;18.47;;
4450;SDS011;2238;50.180;9.230;2023-02-24T09:02:28;30.33;;;18.03;;
4450;SDS011;2238;50.180;9.230;2023-02-24T09:05:28;41.83;;;19.03;;
4450;SDS011;2238;50.180;9.230;2023-02-24T09:08:32;36.73;;;19.20;;
4450;SDS011;2238;50.180;9.230;2023-02-24T09:11:38;38.40;;;18.70;;
4450;SDS011;2238;50.180;9.230;2023-02-24T09:14:42;34.13;;;20.30;;
4450;SDS011;2238;50.180;9.230;2023-02-24T09:17:43;37.20;;;20.17;;
4450;SDS011;2238;50.180;9.230;2023-02-24T09:20:44;35.63;;;19.50;;
4450;SDS011;2238;50.180;9.230;2023-02-24T09:24:15;35.37;;;19.40;;
4450;SDS011;2238;50.180;9.230;2023-02-24T09:27:25;39.03;;;20.20;;
4450;SDS011;2238;50.180;9.230;2023-02-24T09:30:28;44.40;;;21.30;;
4450;SDS011;2238;50.180;9.230;2023-02-24T09:33:35;40.10;;;21.27;;
4450;SDS011;2238;50.180;9.230;2023-02-24T09:36:40;38.53;;;21.50;;
4450;SDS011;2238;50.180;9.230;2023-02-24T09:40:00;42.57;;;20.87;;
4450;SDS011;2238;50.180;9.230;2023-02-24T09:43:31;35.20;;;20.93;;
4450;SDS011;2238;50.180;9.230;2023-02-24T09:46:47;31.43;;;17.43;;
4450;SDS011;2238;50.180;9.230;2023-02-24T09:49:55;38.90;;;20.07;;
4450;SDS011;2238;50.180;9.230;2023-02-24T09:53:04;36.30;;;19.83;;
4450;SDS011;2238;50.180;9.230;2023-02-24T09:56:25;34.00;;;18.90;;
4450;SDS011;2238;50.180;9.230;2023-02-24T09:59:56;38.93;;;19.90;;
4450;SDS011;2238;50.180;9.230;2023-02-24T10:10:07;25.73;;;14.47;;
4450;SDS011;2238;50.180;9.230;2023-02-24T10:13:19;23.87;;;14.70;;
4450;SDS011;2238;50.180;9.230;2023-02-24T10:16:35;27.40;;;14.40;;
4450;SDS011;2238;50.180;9.230;2023-02-24T10:19:40;29.77;;;15.40;;
4450;SDS011;2238;50.180;9.230;2023-02-24T10:25:53;22.70;;;13.00;;
4450;SDS011;2238;50.180;9.230;2023-02-24T10:29:11;20.30;;;12.20;;
4450;SDS011;2238;50.180;9.230;2023-02-24T10:36:08;20.70;;;12.00;;
4450;SDS011;2238;50.180;9.230;2023-02-24T10:39:17;20.90;;;12.67;;
4450;SDS011;2238;50.180;9.230;2023-02-24T10:42:26;21.90;;;12.40;;
4450;SDS011;2238;50.180;9.230;2023-02-24T10:45:36;25.53;;;12.00;;
4450;SDS011;2238;50.180;9.230;2023-02-24T10:48:51;23.53;;;11.73;;
4450;SDS011;2238;50.180;9.230;2023-02-24T10:51:59;22.57;;;13.00;;
4450;SDS011;2238;50.180;9.230;2023-02-24T10:55:08;20.50;;;11.50;;
4450;SDS011;2238;50.180;9.230;2023-02-24T10:58:29;22.30;;;12.87;;
4450;SDS011;2238;50.180;9.230;2023-02-24T11:01:43;19.57;;;12.67;;
4450;SDS011;2238;50.180;9.230;2023-02-24T11:04:57;21.23;;;12.60;;
4450;SDS011;2238;50.180;9.230;2023-02-24T11:08:08;20.97;;;11.30;;
4450;SDS011;2238;50.180;9.230;2023-02-24T11:11:35;20.33;;;12.47;;
4450;SDS011;2238;50.180;9.230;2023-02-24T11:14:56;22.03;;;12.73;;
4450;SDS011;2238;50.180;9.230;2023-02-24T11:18:20;20.10;;;10.63;;
4450;SDS011;2238;50.180;9.230;2023-02-24T11:21:24;17.53;;;11.00;;
4450;SDS011;2238;50.180;9.230;2023-02-24T11:24:26;23.33;;;10.80;;
4450;SDS011;2238;50.180;9.230;2023-02-24T11:27:27;19.50;;;11.50;;
4450;SDS011;2238;50.180;9.230;2023-02-24T11:30:30;17.83;;;11.70;;
4450;SDS011;2238;50.180;9.230;2023-02-24T11:33:44;18.73;;;11.03;;
4450;SDS011;2238;50.180;9.230;2023-02-24T11:40:36;16.70;;;10.27;;
4450;SDS011;2238;50.180;9.230;2023-02-24T11:43:41;19.77;;;10.60;;
4450;SDS011;2238;50.180;9.230;2023-02-24T11:46:46;18.07;;;10.13;;
4450;SDS011;2238;50.180;9.230;2023-02-24T11:50:05;14.87;;;9.33;;
4450;SDS011;2238;50.180;9.230;2023-02-24T11:56:42;14.97;;;10.47;;
4450;SDS011;2238;50.180;9.230;2023-02-24T11:59:50;16.50;;;11.47;;
4450;SDS011;2238;50.180;9.230;2023-02-24T12:07:09;17.10;;;11.07;;
4450;SDS011;2238;50.180;9.230;2023-02-24T12:13:43;16.90;;;9.43;;
4450;SDS011;2238;50.180;9.230;2023-02-24T12:16:49;17.23;;;10.20;;
4450;SDS011;2238;50.180;9.230;2023-02-24T12:20:27;15.73;;;9.73;;
4450;SDS011;2238;50.180;9.230;2023-02-24T12:23:34;16.70;;;10.90;;
4450;SDS011;2238;50.180;9.230;2023-02-24T12:40:24;17.40;;;11.20;;
4450;SDS011;2238;50.180;9.230;2023-02-24T12:43:37;16.57;;;11.07;;
4450;SDS011;2238;50.180;9.230;2023-02-24T12:50:26;17.27;;;10.10;;
4450;SDS011;2238;50.180;9.230;2023-02-24T12:57:01;17.20;;;10.77;;
4450;SDS011;2238;50.180;9.230;2023-02-24T13:13:56;18.13;;;10.80;;
4450;SDS011;2238;50.180;9.230;2023-02-24T13:17:14;23.17;;;11.07;;
4450;SDS011;2238;50.180;9.230;2023-02-24T13:20:37;19.17;;;11.40;;
4450;SDS011;2238;50.180;9.230;2023-02-24T13:23:39;15.23;;;9.40;;
4450;SDS011;2238;50.180;9.230;2023-02-24T13:26:41;17.13;;;8.83;;
4450;SDS011;2238;50.180;9.230;2023-02-24T13:29:43;14.03;;;9.77;;
4450;SDS011;2238;50.180;9.230;2023-02-24T13:32:46;16.63;;;10.47;;
4450;SDS011;2238;50.180;9.230;2023-02-24T13:36:21;15.83;;;10.53;;
4450;SDS011;2238;50.180;9.230;2023-02-24T13:39:34;12.87;;;10.20;;
4450;SDS011;2238;50.180;9.230;2023-02-24T13:42:36;13.83;;;8.97;;
4450;SDS011;2238;50.180;9.230;2023-02-24T13:45:37;20.73;;;9.90;;
4450;SDS011;2238;50.180;9.230;2023-02-24T13:55:48;13.63;;;9.67;;
4450;SDS011;2238;50.180;9.230;2023-02-24T14:02:16;14.43;;;9.50;;
4450;SDS011;2238;50.180;9.230;2023-02-24T14:05:26;13.03;;;8.57;;
4450;SDS011;2238;50.180;9.230;2023-02-24T14:11:42;14.80;;;8.93;;
4450;SDS011;2238;50.180;9.230;2023-02-24T14:14:43;12.20;;;8.57;;
4450;SDS011;2238;50.180;9.230;2023-02-24T14:17:53;17.33;;;9.33;;
4450;SDS011;2238;50.180;9.230;2023-02-24T14:20:58;16.57;;;8.80;;
4450;SDS011;2238;50.180;9.230;2023-02-24T14:24:00;14.53;;;8.70;;
4450;SDS011;2238;50.180;9.230;2023-02-24T14:27:04;18.90;;;8.43;;
4450;SDS011;2238;50.180;9.230;2023-02-24T14:30:05;17.03;;;9.33;;
4450;SDS011;2238;50.180;9.230;2023-02-24T14:33:07;11.10;;;7.80;;
4450;SDS011;2238;50.180;9.230;2023-02-24T14:36:24;12.50;;;8.37;;
4450;SDS011;2238;50.180;9.230;2023-02-24T14:39:28;17.07;;;9.23;;
4450;SDS011;2238;50.180;9.230;2023-02-24T14:42:30;13.40;;;8.27;;
4450;SDS011;2238;50.180;9.230;2023-02-24T14:45:30;13.63;;;9.33;;
4450;SDS011;2238;50.180;9.230;2023-02-24T14:48:31;13.70;;;8.03;;
4450;SDS011;2238;50.180;9.230;2023-02-24T14:51:32;17.37;;;9.70;;
4450;SDS011;2238;50.180;9.230;2023-02-24T14:57:50;20.70;;;10.33;;
4450;SDS011;2238;50.180;9.230;2023-02-24T15:00:56;11.70;;;8.50;;
4450;SDS011;2238;50.180;9.230;2023-02-24T15:04:12;16.33;;;9.17;;
4450;SDS011;2238;50.180;9.230;2023-02-24T15:07:25;21.67;;;8.87;;
4450;SDS011;2238;50.180;9.230;2023-02-24T15:10:29;13.77;;;9.10;;
4450;SDS011;2238;50.180;9.230;2023-02-24T15:13:43;13.30;;;7.77;;
4450;SDS011;2238;50.180;9.230;2023-02-24T15:16:59;14.13;;;8.67;;
4450;SDS011;2238;50.180;9.230;2023-02-24T15:23:32;16.03;;;10.80;;
4450;SDS011;2238;50.180;9.230;2023-02-24T15:26:36;15.10;;;8.27;;
4450;SDS011;2238;50.180;9.230;2023-02-24T15:29:37;11.10;;;7.27;;
4450;SDS011;2238;50.180;9.230;2023-02-24T15:32:38;10.67;;;7.00;;
4450;SDS011;2238;50.180;9.230;2023-02-24T15:35:44;14.30;;;8.90;;
4450;SDS011;2238;50.180;9.230;2023-02-24T15:38:51;7.47;;;6.40;;
4450;SDS011;2238;50.180;9.230;2023-02-24T15:42:47;11.80;;;6.30;;
4450;SDS011;2238;50.180;9.230;2023-02-24T15:45:29;13.97;;;7.90;;
4450;SDS011;2238;50.180;9.230;2023-02-24T15:48:32;10.27;;;7.50;;
4450;SDS011;2238;50.180;9.230;2023-02-24T15:51:39;11.00;;;6.80;;
4450;SDS011;2238;50.180;9.230;2023-02-24T15:54:44;12.20;;;7.90;;
4450;SDS011;2238;50.180;9.230;2023-02-24T15:57:44;11.73;;;7.77;;
4450;SDS011;2238;50.180;9.230;2023-02-24T16:00:46;10.77;;;7.73;;
4450;SDS011;2238;50.180;9.230;2023-02-24T16:03:51;11.37;;;7.33;;
4450;SDS011;2238;50.180;9.230;2023-02-24T16:06:52;10.10;;;7.67;;
4450;SDS011;2238;50.180;9.230;2023-02-24T16:09:55;14.37;;;7.37;;
4450;SDS011;2238;50.180;9.230;2023-02-24T16:13:00;12.57;;;7.50;;
4450;SDS011;2238;50.180;9.230;2023-02-24T16:16:01;12.00;;;7.50;;
4450;SDS011;2238;50.180;9.230;2023-02-24T16:19:04;12.60;;;8.13;;
4450;SDS011;2238;50.180;9.230;2023-02-24T16:22:05;16.43;;;7.53;;
4450;SDS011;2238;50.180;9.230;2023-02-24T16:25:06;11.57;;;6.83;;
4450;SDS011;2238;50.180;9.230;2023-02-24T16:28:11;7.90;;;5.77;;
4450;SDS011;2238;50.180;9.230;2023-02-24T16:31:14;11.60;;;7.70;;
4450;SDS011;2238;50.180;9.230;2023-02-24T16:34:14;11.47;;;8.17;;
4450;SDS011;2238;50.180;9.230;2023-02-24T16:37:16;10.63;;;7.33;;
4450;SDS011;2238;50.180;9.230;2023-02-24T16:40:27;14.57;;;7.87;;
4450;SDS011;2238;50.180;9.230;2023-02-24T16:43:29;11.70;;;8.00;;
4450;SDS011;2238;50.180;9.230;2023-02-24T16:46:34;10.40;;;6.80;;
4450;SDS011;2238;50.180;9.230;2023-02-24T16:49:38;11.90;;;7.00;;
4450;SDS011;2238;50.180;9.230;2023-02-24T16:52:40;17.50;;;7.77;;
4450;SDS011;2238;50.180;9.230;2023-02-24T16:55:41;16.43;;;8.63;;
4450;SDS011;2238;50.180;9.230;2023-02-24T16:58:42;16.77;;;10.97;;
4450;SDS011;2238;50.180;9.230;2023-02-24T17:01:42;14.57;;;9.07;;
4450;SDS011;2238;50.180;9.230;2023-02-24T17:04:43;15.70;;;8.97;;
4450;SDS011;2238;50.180;9.230;2023-02-24T17:07:47;13.47;;;8.47;;
4450;SDS011;2238;50.180;9.230;2023-02-24T17:10:49;13.03;;;9.03;;
4450;SDS011;2238;50.180;9.230;2023-02-24T17:13:51;25.60;;;18.97;;
4450;SDS011;2238;50.180;9.230;2023-02-24T17:16:52;18.57;;;13.90;;
4450;SDS011;2238;50.180;9.230;2023-02-24T17:19:52;20.03;;;13.40;;
4450;SDS011;2238;50.180;9.230;2023-02-24T17:22:53;16.97;;;11.87;;
4450;SDS011;2238;50.180;9.230;2023-02-24T17:25:55;22.20;;;18.20;;
4450;SDS011;2238;50.180;9.230;2023-02-24T17:28:57;17.33;;;12.83;;
4450;SDS011;2238;50.180;9.230;2023-02-24T17:31:58;17.60;;;11.97;;
4450;SDS011;2238;50.180;9.230;2023-02-24T17:34:58;24.73;;;12.67;;
4450;SDS011;2238;50.180;9.230;2023-02-24T17:37:59;16.77;;;9.40;;
4450;SDS011;2238;50.180;9.230;2023-02-24T17:41:00;17.70;;;12.33;;
4450;SDS011;2238;50.180;9.230;2023-02-24T17:44:01;15.57;;;10.83;;
4450;SDS011;2238;50.180;9.230;2023-02-24T17:47:01;16.97;;;11.60;;
4450;SDS011;2238;50.180;9.230;2023-02-24T17:50:03;10.93;;;7.77;;
4450;SDS011;2238;50.180;9.230;2023-02-24T17:53:04;7.60;;;6.20;;
4450;SDS011;2238;50.180;9.230;2023-02-24T17:56:05;9.63;;;6.00;;
4450;SDS011;2238;50.180;9.230;2023-02-24T17:59:06;9.83;;;7.47;;
4450;SDS011;2238;50.180;9.230;2023-02-24T18:02:08;8.40;;;7.07;;
4450;SDS011;2238;50.180;9.230;2023-02-24T18:05:10;13.93;;;11.10;;
4450;SDS011;2238;50.180;9.230;2023-02-24T18:08:10;9.70;;;8.23;;
4450;SDS011;2238;50.180;9.230;2023-02-24T18:11:14;9.40;;;8.00;;
4450;SDS011;2238;50.180;9.230;2023-02-24T18:14:16;10.90;;;7.63;;
4450;SDS011;2238;50.180;9.230;2023-02-24T18:17:17;9.80;;;6.07;;
4450;SDS011;2238;50.180;9.230;2023-02-24T18:20:18;10.67;;;7.40;;
4450;SDS011;2238;50.180;9.230;2023-02-24T18:23:19;9.60;;;6.13;;
4450;SDS011;2238;50.180;9.230;2023-02-24T18:26:19;7.83;;;6.50;;
4450;SDS011;2238;50.180;9.230;2023-02-24T18:29:21;14.43;;;8.07;;
4450;SDS011;2238;50.180;9.230;2023-02-24T18:32:22;17.33;;;11.87;;
4450;SDS011;2238;50.180;9.230;2023-02-24T18:35:23;9.13;;;6.53;;
4450;SDS011;2238;50.180;9.230;2023-02-24T18:38:23;8.30;;;6.57;;
4450;SDS011;2238;50.180;9.230;2023-02-24T18:41:25;7.90;;;7.10;;
4450;SDS011;2238;50.180;9.230;2023-02-24T18:44:25;7.90;;;6.63;;
4450;SDS011;2238;50.180;9.230;2023-02-24T18:47:26;7.20;;;6.30;;
4450;SDS011;2238;50.180;9.230;2023-02-24T18:50:26;7.10;;;5.97;;
4450;SDS011;2238;50.180;9.230;2023-02-24T18:53:28;34.10;;;22.50;;
4450;SDS011;2238;50.180;9.230;2023-02-24T18:56:33;15.03;;;12.93;;
4450;SDS011;2238;50.180;9.230;2023-02-24T18:59:34;11.90;;;10.07;;
4450;SDS011;2238;50.180;9.230;2023-02-24T19:02:34;9.13;;;6.20;;
4450;SDS011;2238;50.180;9.230;2023-02-24T19:05:35;9.57;;;7.60;;
4450;SDS011;2238;50.180;9.230;2023-02-24T19:08:36;6.90;;;6.20;;
4450;SDS011;2238;50.180;9.230;2023-02-24T19:11:38;9.23;;;6.37;;
4450;SDS011;2238;50.180;9.230;2023-02-24T19:14:40;6.10;;;5.50;;
4450;SDS011;2238;50.180;9.230;2023-02-24T19:17:40;9.00;;;6.77;;
4450;SDS011;2238;50.180;9.230;2023-02-24T19:20:41;8.00;;;5.50;;
4450;SDS011;2238;50.180;9.230;2023-02-24T19:23:43;8.13;;;7.00;;
4450;SDS011;2238;50.180;9.230;2023-02-24T19:26:43;6.70;;;6.00;;
4450;SDS011;2238;50.180;9.230;2023-02-24T19:29:46;8.67;;;7.03;;
4450;SDS011;2238;50.180;9.230;2023-02-24T19:32:46;8.77;;;7.67;;
4450;SDS011;2238;50.180;9.230;2023-02-24T19:35:48;12.60;;;9.47;;
4450;SDS011;2238;50.180;9.230;2023-02-24T19:38:48;10.80;;;8.73;;
4450;SDS011;2238;50.180;9.230;2023-02-24T19:41:49;10.27;;;7.67;;
4450;SDS011;2238;50.180;9.230;2023-02-24T19:44:50;12.90;;;9.93;;
4450;SDS011;2238;50.180;9.230;2023-02-24T19:47:50;14.53;;;10.03;;
4450;SDS011;2238;50.180;9.230;2023-02-24T19:50:51;13.00;;;8.17;;
4450;SDS011;2238;50.180;9.230;2023-02-24T19:53:52;17.13;;;8.53;;
4450;SDS011;2238;50.180;9.230;2023-02-24T19:56:54;12.20;;;9.48;;
4450;SDS011;2238;50.180;9.230;2023-02-24T19:59:56;12.13;;;8.87;;
4450;SDS011;2238;50.180;9.230;2023-02-24T20:02:57;13.20;;;10.30;;
4450;SDS011;2238;50.180;9.230;2023-02-24T20:05:57;12.83;;;10.23;;
4450;SDS011;2238;50.180;9.230;2023-02-24T20:08:59;15.50;;;9.87;;
4450;SDS011;2238;50.180;9.230;2023-02-24T20:12:00;10.67;;;9.20;;
4450;SDS011;2238;50.180;9.230;2023-02-24T20:15:03;16.43;;;12.57;;
4450;SDS011;2238;50.180;9.230;2023-02-24T20:18:04;16.07;;;12.10;;
4450;SDS011;2238;50.180;9.230;2023-02-24T20:21:07;18.67;;;11.03;;
4450;SDS011;2238;50.180;9.230;2023-02-24T20:24:11;19.37;;;11.80;;
4450;SDS011;2238;50.180;9.230;2023-02-24T20:27:13;16.80;;;12.20;;
4450;SDS011;2238;50.180;9.230;2023-02-24T20:30:14;30.50;;;19.53;;
4450;SDS011;2238;50.180;9.230;2023-02-24T20:33:15;20.53;;;13.33;;
4450;SDS011;2238;50.180;9.230;2023-02-24T20:36:18;18.10;;;13.70;;